Flight Track Log - Related Links

Times and Time Zones

All times are in EDT time to prevent confusion due to time zone crossing. See the DAL1702 flight status page for this flight to view local times or setup timezone preferences in your user account.

Time Position Orientation Groundspeed Altitude Reporting Facility
EDT Latitude Longitude Course Direction KTS MPH feet Rate Location/Type
Sat 01:20:12 PM 36.0764 -115.1192 92° East 167 192 3,000  Level Los Angeles Center
Sat 01:21:37 PM 36.0733 -115.0089 95° East 249 287 6,100 2,310 Climbing Los Angeles Center
Sat 01:23:19 PM 36.0614 -114.8497 100° East 328 377 10,200 1,926 Climbing Los Angeles Center
Sat 01:24:19 PM 36.0456 -114.7342 100° East 336 387 11,300 1,765 Climbing Los Angeles Center
Sat 01:25:18 PM 36.0272 -114.6011 99° East 362 417 13,700 2,471 Climbing Los Angeles Center
Sat 01:26:18 PM 36.0089 -114.4628 101° East 392 451 16,200 2,350 Climbing Los Angeles Center
Sat 01:27:18 PM 35.9858 -114.3219 99° East 406 467 18,400 2,050 Climbing Los Angeles Center
Sat 01:28:18 PM 35.9669 -114.1761 101° East 418 481 20,300 1,800 Climbing Los Angeles Center
Sat 01:29:18 PM 35.9436 -114.0256 100° East 437 503 22,000 1,650 Climbing Los Angeles Center
Sat 01:30:18 PM 35.9222 -113.8697 101° East 448 516 23,600 1,550 Climbing Los Angeles Center
Sat 01:31:18 PM 35.8983 -113.7164 103° East 453 521 25,100 1,400 Climbing Los Angeles Center
Sat 01:32:18 PM 35.8681 -113.5558 101° East 458 527 26,400 1,140 Climbing Los Angeles Center
Sat 01:33:19 PM 35.8414 -113.3875 101° East 477 549 27,400 1,100 Climbing Los Angeles Center
Sat 01:34:18 PM 35.8144 -113.2194 101° East 493 567 28,600 1,462 Climbing Los Angeles Center
Sat 01:35:18 PM 35.7875 -113.0489 101° East 499 574 30,300 1,550 Climbing Los Angeles Center
Sat 01:36:18 PM 35.7600 -112.8811 102° East 504 580 31,700 1,250 Climbing Los Angeles Center
Sat 01:37:18 PM 35.7303 -112.7108 101° East 504 580 32,800 1,061 Climbing Los Angeles Center
Sat 01:39:02 PM 35.6808 -112.3964 103° East 515 593 34,600 957 Climbing Albuquerque Center
Sat 01:40:01 PM 35.6483 -112.2256 101° East 515 593 35,400 1,008 Climbing Albuquerque Center
Sat 01:41:01 PM 35.6200 -112.0500 101° East 515 593 36,600 800 Climbing Albuquerque Center
Sat 01:42:01 PM 35.5931 -111.8800 92° East 510 587 37,000 200 Climbing Albuquerque Center
Sat 01:43:01 PM 35.5869 -111.7058 92° East 510 587 37,000  Level Albuquerque Center
Sat 01:44:01 PM 35.5828 -111.5294 93° East 510 587 37,000  Level Albuquerque Center
Sat 01:45:01 PM 35.5744 -111.3503 91° East 517 595 37,000  Level Albuquerque Center
Sat 01:46:02 PM 35.5711 -111.1892 92° East 524 603 37,000  Level Albuquerque Center
Sat 01:48:01 PM 35.5575 -110.8183 92° East 518 596 37,000  Level Albuquerque Center
Sat 01:49:01 PM 35.5522 -110.6392 93° East 518 596 37,000  Level Albuquerque Center
Sat 01:50:01 PM 35.5458 -110.4808 93° East 518 596 37,000  Level Albuquerque Center
Sat 01:51:01 PM 35.5378 -110.3017 92° East 518 596 37,000  Level Albuquerque Center
Sat 01:52:01 PM 35.5322 -110.1050 93° East 518 596 37,000  Level Albuquerque Center
Sat 01:53:01 PM 35.5236 -109.9311 93° East 518 596 37,000  Level Albuquerque Center
Sat 01:54:01 PM 35.5164 -109.7703 93° East 524 603 37,000  Level Albuquerque Center
Sat 01:55:01 PM 35.5078 -109.5733 93° East 519 597 37,000  Level Albuquerque Center
Sat 01:56:01 PM 35.5003 -109.3972 93° East 519 597 37,000  Level Albuquerque Center
Sat 01:57:01 PM 35.4928 -109.2158 93° East 519 597 37,000  Level Albuquerque Center
Sat 01:58:01 PM 35.4847 -109.0550 92° East 524 603 37,000  Level Albuquerque Center
Sat 01:59:01 PM 35.4792 -108.8611 88° East 519 597 37,000  Level Albuquerque Center
Sat 02:00:02 PM 35.4853 -108.6825 85° East 519 597 37,000  Level Albuquerque Center
Sat 02:01:01 PM 35.4975 -108.5219 86° East 519 597 37,000  Level Albuquerque Center
Sat 02:02:01 PM 35.5097 -108.3233 85° East 519 597 37,000  Level Albuquerque Center
Sat 02:03:01 PM 35.5214 -108.1447 86° East 519 597 37,000  Level Albuquerque Center
Sat 02:04:01 PM 35.5308 -107.9661 86° East 519 597 37,000  Level Albuquerque Center
Sat 02:05:01 PM 35.5397 -107.8028 86° East 524 603 37,000  Level Albuquerque Center
Sat 02:06:01 PM 35.5508 -107.6036 86° East 530 610 37,000  Level Albuquerque Center
Sat 02:07:01 PM 35.5614 -107.4200 86° East 538 619 37,000  Level Albuquerque Center
Sat 02:08:02 PM 35.5697 -107.2539 86° East 538 619 37,000  Level Albuquerque Center
Sat 02:09:01 PM 35.5800 -107.0725 87° East 538 619 37,000  Level Albuquerque Center
Sat 02:10:01 PM 35.5878 -106.8708 86° East 538 619 37,000  Level Albuquerque Center
Sat 02:11:01 PM 35.5972 -106.6817 87° East 538 619 37,000  Level Albuquerque Center
Sat 02:12:01 PM 35.6044 -106.5181 87° East 538 619 37,000  Level Albuquerque Center
Sat 02:13:01 PM 35.6114 -106.3317 86° East 538 619 37,000  Level Albuquerque Center
Sat 02:14:01 PM 35.6219 -106.1294 87° East 532 612 37,000  Level Albuquerque Center
Sat 02:15:01 PM 35.6283 -105.9481 87° East 537 618 37,000  Level Albuquerque Center
Sat 02:16:01 PM 35.6367 -105.7742 87° East 542 624 37,000  Level Albuquerque Center
Sat 02:17:01 PM 35.6444 -105.5900 88° East 547 629 37,000  Level Albuquerque Center
Sat 02:18:01 PM 35.6497 -105.3931 88° East 531 611 37,000  Level Albuquerque Center
Sat 02:19:01 PM 35.6550 -105.2061 87° East 531 611 37,000  Level Albuquerque Center
Sat 02:20:01 PM 35.6622 -105.0425 86° East 536 617 37,000  Level Albuquerque Center
Sat 02:21:01 PM 35.6733 -104.8631 87° East 531 611 37,000  Level Albuquerque Center
Sat 02:22:01 PM 35.6819 -104.6839 86° East 537 618 37,000  Level Albuquerque Center
Sat 02:23:01 PM 35.6922 -104.5019 86° East 537 618 37,000  Level Albuquerque Center
Sat 02:24:01 PM 35.7019 -104.3047 87° East 537 618 37,000  Level Albuquerque Center
Sat 02:25:01 PM 35.7100 -104.1253 87° East 537 618 37,000  Level Albuquerque Center
Sat 02:26:01 PM 35.7175 -103.9458 86° East 537 618 37,000  Level Albuquerque Center
Sat 02:27:01 PM 35.7267 -103.7664 87° East 537 618 37,000  Level Albuquerque Center
Sat 02:28:01 PM 35.7339 -103.5894 86° East 525 604 37,000  Level Albuquerque Center
Sat 02:29:01 PM 35.7428 -103.4097 87° East 525 604 37,000  Level Albuquerque Center
Sat 02:30:01 PM 35.7492 -103.2303 87° East 519 597 37,000  Level Albuquerque Center
Sat 02:31:01 PM 35.7561 -103.0739 88° East 519 597 37,000  Level Albuquerque Center
Sat 02:32:01 PM 35.7603 -102.8969 87° East 519 597 37,000  Level Albuquerque Center
Sat 02:33:01 PM 35.7681 -102.7225 87° East 519 597 37,000  Level Albuquerque Center
Sat 02:34:01 PM 35.7750 -102.5300 87° East 519 597 37,000  Level Albuquerque Center
Sat 02:35:01 PM 35.7825 -102.3556 88° East 519 597 37,000  Level Albuquerque Center
Sat 02:36:01 PM 35.7875 -102.1786 88° East 519 597 37,000  Level Albuquerque Center
Sat 02:37:01 PM 35.7925 -102.0039 87° East 514 592 37,000  Level Albuquerque Center
Sat 02:38:01 PM 35.7989 -101.8269 89° East 514 592 37,000  Level Albuquerque Center
Sat 02:39:01 PM 35.8011 -101.6525 88° East 514 592 37,000  Level Albuquerque Center
Sat 02:40:01 PM 35.8072 -101.4753 93° East 519 597 37,000  Level Albuquerque Center
Sat 02:41:02 PM 35.8006 -101.2992 96° East 519 597 37,000  Level Albuquerque Center
Sat 02:42:01 PM 35.7853 -101.1261 94° East 508 585 37,000  Level Albuquerque Center
Sat 02:43:01 PM 35.7761 -100.9503 91° East 508 585 37,000  Level Albuquerque Center
Sat 02:44:01 PM 35.7728 -100.7739 91° East 514 592 37,000  Level Albuquerque Center
Sat 02:45:59 PM 35.7661 -100.4267 93° East 515 593 37,000  Level Fort Worth Center
Sat 02:46:59 PM 35.7597 -100.2525 92° East 515 593 37,000  Level Fort Worth Center
Sat 02:48:00 PM 35.7564 -100.1119 92° East 515 593 37,000  Level Fort Worth Center
Sat 02:49:00 PM 35.7500 -99.9222 93° East 515 593 37,000  Level Fort Worth Center
Sat 02:49:59 PM 35.7431 -99.7483 93° East 515 593 37,000  Level Fort Worth Center
Sat 02:51:00 PM 35.7356 -99.5767 92° East 515 593 37,000  Level Fort Worth Center
Sat 02:52:00 PM 35.7306 -99.3822 93° East 515 593 37,000  Level Fort Worth Center
Sat 02:52:59 PM 35.7228 -99.2108 92° East 515 593 37,000  Level Fort Worth Center
Sat 02:54:00 PM 35.7167 -99.0342 92° East 515 593 37,000  Level Fort Worth Center
Sat 02:55:59 PM 35.7042 -98.6864 94° East 510 587 37,000  Level Fort Worth Center
Sat 02:57:00 PM 35.6953 -98.5125 92° East 510 587 37,000  Level Fort Worth Center
Sat 02:58:00 PM 35.6906 -98.3439 92° East 510 587 37,000  Level Fort Worth Center
Sat 02:58:35 PM 35.6869 -98.2417 95° East 505 581 37,000  Level Fort Worth Center
Sat 02:59:35 PM 35.6756 -98.0678 92° East 521 600 37,000  Level Fort Worth Center
Sat 03:00:35 PM 35.6700 -97.9092 93° East 516 594 37,000  Level Fort Worth Center
Sat 03:01:35 PM 35.6622 -97.7356 93° East 516 594 37,000  Level Fort Worth Center
Sat 03:02:35 PM 35.6542 -97.5642 93° East 516 594 37,000  Level Fort Worth Center
Sat 03:03:35 PM 35.6461 -97.3856 95° East 516 594 37,000  Level Fort Worth Center
Sat 03:04:35 PM 35.6333 -97.1964 94° East 516 594 37,000  Level Fort Worth Center
Sat 03:05:35 PM 35.6225 -97.0203 95° East 516 594 37,000  Level Fort Worth Center
Sat 03:06:35 PM 35.6114 -96.8494 94° East 511 588 37,000  Level Fort Worth Center
Sat 03:07:35 PM 35.6022 -96.6758 94° East 511 588 37,000  Level Fort Worth Center
Sat 03:08:35 PM 35.5928 -96.5228 96° East 511 588 37,000  Level Fort Worth Center
Sat 03:09:35 PM 35.5789 -96.3519 94° East 506 582 37,000  Level Fort Worth Center
Sat 03:10:35 PM 35.5692 -96.1783 94° East 506 582 37,000  Level Fort Worth Center
Sat 03:11:35 PM 35.5589 -96.0053 94° East 506 582 37,000  Level Fort Worth Center
Sat 03:12:35 PM 35.5483 -95.8217 95° East 500 575 37,000  Level Fort Worth Center
Sat 03:13:35 PM 35.5356 -95.6458 96° East 500 575 37,000  Level Fort Worth Center
Sat 03:15:19 PM 35.5114 -95.3714 96° East 502 578 37,000  Level Memphis Center
Sat 03:16:19 PM 35.4956 -95.1969 97° East 507 583 37,000  Level Memphis Center
Sat 03:17:19 PM 35.4792 -95.0253 97° East 507 583 37,000  Level Memphis Center
Sat 03:18:19 PM 35.4625 -94.8536 95° East 507 583 37,000  Level Memphis Center
Sat 03:19:19 PM 35.4497 -94.6794 97° East 507 583 37,000  Level Memphis Center
Sat 03:20:19 PM 35.4328 -94.5081 96° East 502 578 37,000  Level Memphis Center
Sat 03:21:19 PM 35.4158 -94.3211 97° East 507 583 37,000  Level Memphis Center
Sat 03:22:19 PM 35.3983 -94.1497 97° East 507 583 37,000  Level Memphis Center
Sat 03:23:19 PM 35.3806 -93.9758 97° East 507 583 37,000  Level Memphis Center
Sat 03:24:19 PM 35.3644 -93.8044 97° East 507 583 37,000  Level Memphis Center
Sat 03:25:19 PM 35.3461 -93.6306 97° East 507 583 37,000  Level Memphis Center
Sat 03:26:19 PM 35.3297 -93.4594 97° East 507 583 37,000  Level Memphis Center
Sat 03:27:19 PM 35.3144 -93.3164 97° East 499 574 37,000  Level Memphis Center
Sat 03:28:19 PM 35.2975 -93.1453 98° East 499 574 37,000  Level Memphis Center
Sat 03:29:19 PM 35.2764 -92.9692 97° East 508 585 37,000  Level Memphis Center
Sat 03:30:19 PM 35.2589 -92.7983 98° East 513 590 37,000  Level Memphis Center
Sat 03:31:19 PM 35.2356 -92.6017 98° East 518 596 37,000  Level Memphis Center
Sat 03:32:19 PM 35.2156 -92.4311 97° East 518 596 37,000  Level Memphis Center
Sat 03:33:19 PM 35.1972 -92.2603 98° East 513 590 37,000  Level Memphis Center
Sat 03:34:19 PM 35.1769 -92.0897 98° East 508 585 37,000  Level Memphis Center
Sat 03:35:19 PM 35.1583 -91.9217 99° East 503 579 37,000  Level Memphis Center
Sat 03:36:19 PM 35.1372 -91.7511 98° East 503 579 37,000  Level Memphis Center
Sat 03:37:19 PM 35.1183 -91.5808 99° East 503 579 37,000  Level Memphis Center
Sat 03:38:19 PM 35.0969 -91.4103 97° East 503 579 37,000  Level Memphis Center
Sat 03:39:19 PM 35.0794 -91.2478 99° East 498 573 37,000  Level Memphis Center
Sat 03:40:19 PM 35.0575 -91.0775 98° East 498 573 37,000  Level Memphis Center
Sat 03:41:19 PM 35.0375 -90.9100 98° East 498 573 37,000  Level Memphis Center
Sat 03:42:19 PM 35.0172 -90.7425 99° East 506 582 37,000  Level Memphis Center
Sat 03:43:19 PM 34.9947 -90.5725 99° East 506 582 37,000  Level Memphis Center
Sat 03:44:19 PM 34.9719 -90.4053 99° East 495 570 37,000  Level Memphis Center
Sat 03:45:19 PM 34.9508 -90.2381 99° East 506 582 37,000  Level Memphis Center
Sat 03:46:19 PM 34.9297 -90.0683 100° East 506 582 37,000  Level Memphis Center
Sat 03:47:19 PM 34.9064 -89.9014 100° East 499 574 37,000  Level Memphis Center
Sat 03:48:19 PM 34.8806 -89.7267 99° East 511 588 37,000  Level Memphis Center
Sat 03:49:19 PM 34.8586 -89.5547 99° East 511 588 37,000 -650 Level Memphis Center
Sat 03:50:19 PM 34.8367 -89.3931 100° East 506 582 35,700 -1,000 Descending Memphis Center
Sat 03:51:19 PM 34.8122 -89.2264 99° East 501 577 35,000 -500 Descending Memphis Center
Sat 03:52:19 PM 34.7897 -89.0625 100° East 501 577 34,700 -800 Descending Memphis Center
Sat 03:53:19 PM 34.7650 -88.8933 100° East 507 583 33,400 -850 Descending Memphis Center
Sat 03:54:19 PM 34.7419 -88.7269 100° East 502 578 33,000 -200 Descending Memphis Center
Sat 03:55:19 PM 34.7167 -88.5583 100° East 502 578 33,000  Level Memphis Center
Sat 03:56:19 PM 34.6936 -88.3994 101° East 497 572 33,000  Level Memphis Center
Sat 03:57:19 PM 34.6678 -88.2308 100° East 497 572 33,000  Level Memphis Center
Sat 03:58:19 PM 34.6461 -88.0750 101° East 512 589 33,000  Level Memphis Center
Sat 03:59:19 PM 34.6200 -87.9067 101° East 512 589 33,000  Level Memphis Center
Sat 04:00:19 PM 34.5936 -87.7408 100° East 506 582 33,000  Level Memphis Center
Sat 04:02:40 PM 34.5350 -87.3319 102° East 502 578 33,000  Level Atlanta Center
Sat 04:03:40 PM 34.5114 -87.1975 101° East 507 583 33,000  Level Atlanta Center
Sat 04:04:40 PM 34.4825 -87.0150 101° East 507 583 33,000  Level Atlanta Center
Sat 04:05:40 PM 34.4553 -86.8478 101° East 507 583 33,000  Level Atlanta Center
Sat 04:06:40 PM 34.4275 -86.6806 101° East 507 583 33,000  Level Atlanta Center
Sat 04:07:40 PM 34.4017 -86.5136 102° East 507 583 33,000  Level Atlanta Center
Sat 04:08:40 PM 34.3736 -86.3492 102° East 507 583 33,000  Level Atlanta Center
Sat 04:09:40 PM 34.3417 -86.1647 101° East 507 583 33,000 -950 Level Atlanta Center
Sat 04:10:40 PM 34.3150 -86.0006 101° East 507 583 31,100 -2,600 Descending Atlanta Center
Sat 04:11:40 PM 34.2883 -85.8339 102° East 507 583 27,800 -2,950 Descending Atlanta Center
Sat 04:12:40 PM 34.2614 -85.6750 102° East 497 572 25,200 -2,550 Descending Atlanta Center
Sat 04:13:40 PM 34.2342 -85.5211 102° East 474 545 22,700 -2,300 Descending Atlanta Center
Sat 04:14:40 PM 34.2106 -85.3878 102° East 463 533 20,600 -2,300 Descending Atlanta Center
Sat 04:15:40 PM 34.1850 -85.2417 106° East 448 516 18,100 -2,350 Descending Atlanta Center
Sat 04:16:40 PM 34.1528 -85.1081 132° Southeast 429 494 15,900 -2,050 Descending Atlanta Center
Sat 04:17:40 PM 34.0764 -85.0069 134° Southeast 400 460 14,000 -1,300 Descending Atlanta Center
Sat 04:18:40 PM 34.0019 -84.9133 134° Southeast 390 449 13,300 -1,000 Descending Atlanta Center
Sat 04:19:40 PM 33.9294 -84.8225 132° Southeast 383 441 12,000 -678 Descending Atlanta Center
Sat 04:20:35 PM 33.8500 -84.7167 132° Southeast 371 427 12,000  Level Atlanta TRACON
Sat 04:21:35 PM 33.8000 -84.6500 132° Southeast 288 331 12,000  Level Atlanta TRACON
Sat 04:22:35 PM 33.7500 -84.5833 103° East 258 297 12,000 -800 Level Atlanta TRACON
Sat 04:23:35 PM 33.7333 -84.5000 90° East 266 306 10,400 -1,750 Descending Atlanta TRACON
Sat 04:24:35 PM 33.7333 -84.4167 90° East 267 307 8,500 -1,800 Descending Atlanta TRACON
Sat 04:25:35 PM 33.7333 -84.3333 90° East 251 289 6,800 -1,550 Descending Atlanta TRACON
Sat 04:26:35 PM 33.7333 -84.2500 107° East 237 273 5,400 -1,105 Descending Atlanta TRACON
Sat 04:27:29 PM 33.7167 -84.1833 196° South 233 268 4,700 -800 Descending Atlanta TRACON
Sat 04:28:35 PM 33.6667 -84.2000 253° West 196 226 3,800 -909 Descending Atlanta TRACON
Sat 04:29:41 PM 33.6500 -84.2667 270° West 184 212 2,700 -700 Descending Atlanta TRACON
Sat 04:30:35 PM 33.6500 -84.3167 270° West 166 191 2,400 -526 Descending Atlanta TRACON
Sat 04:31:35 PM 33.6500 -84.3667 270° West 130 150 1,700 -700 Descending Atlanta TRACON

Login

Don't have an account? Register now (free) for customized features, flight alerts, and more!